Busy Bee — BUSYB — position and weather

sailwx.info

Track history (hours):
 
Tides and Currents Weather Stations Pressure Air Temp Water Temp Dewpoint Dewpoint Depression Visibility Wind Speed Wind Dir Waves Ship Positions

Busy Bee

Last reported at 2016-May-15 08:32 UTC. Time now 2016-May-30 04:56 UTC.
Position N 34°43' E 135°20'.
Warning: this ship's position is 14 days out of date.

Length 15 m.

Type: Sailing vessel. MMSI: 431002814.

Date/timePositionNaut miles runAvg speedWind from/ knotsBaromVisibWave heightAir tempDewpointWater temp
2016-May-15 08:32N 34°43' E 135°20'7 6.5
2016-May-15 07:30N 34°37' E 135°15'5 5.5
2016-May-15 06:30N 34°33' E 135°10'1 1.0
2016-May-15 05:33N 34°33' E 135°09'1 0.7
2016-May-15 04:33N 34°33' E 135°10'7 7.0
2016-May-15 03:33N 34°38' E 135°16'5 0.1
2016-May-13 08:08N 34°42' E 135°20'4 7.2
2016-May-13 07:32N 34°39' E 135°17'8 7.8
2016-May-13 06:30N 34°33' E 135°10'5 0.2
2016-May-12 06:05N 34°29' E 135°06'4 4.6
2016-May-12 05:15N 34°32' E 135°10'1 0.7
2016-May-12 04:27N 34°32' E 135°09'5 5.2
2016-May-12 03:34N 34°36' E 135°13'7 7.0
2016-May-12 02:34N 34°41' E 135°19'  
Track history (hours):
 
Tides and Currents Weather Stations Pressure Air Temp Water Temp Dewpoint Dewpoint Depression Visibility Wind Speed Wind Dir Waves Ship Positions

Busy Bee

Last reported at 2016-May-15 08:32 UTC. Time now 2016-May-30 04:56 UTC.
Position N 34°43' E 135°20'.
Warning: this ship's position is 14 days out of date.

Length 15 m.

Type: Sailing vessel. MMSI: 431002814.

Date/timePositionNaut miles runAvg speedWind from/ knotsBaromVisibWave heightAir tempDewpointWater temp
2016-May-15 08:32N 34°43' E 135°20'7 6.5
2016-May-15 07:30N 34°37' E 135°15'5 5.5
2016-May-15 06:30N 34°33' E 135°10'1 1.0
2016-May-15 05:33N 34°33' E 135°09'1 0.7
2016-May-15 04:33N 34°33' E 135°10'7 7.0
2016-May-15 03:33N 34°38' E 135°16'5 0.1
2016-May-13 08:08N 34°42' E 135°20'4 7.2
2016-May-13 07:32N 34°39' E 135°17'8 7.8
2016-May-13 06:30N 34°33' E 135°10'5 0.2
2016-May-12 06:05N 34°29' E 135°06'4 4.6
2016-May-12 05:15N 34°32' E 135°10'1 0.7
2016-May-12 04:27N 34°32' E 135°09'5 5.2
2016-May-12 03:34N 34°36' E 135°13'7 7.0
2016-May-12 02:34N 34°41' E 135°19'  

Dump ship's entire track history